Time;durP1;ratioP1;P1;durP2;ratioP2;P2;SDS_P1;SDS_P2;PMS_P1;PMS_P2;Temp;Humidity;BMP_temperature;BMP_pressure;BME280_temperature;BME280_humidity;BME280_pressure;Samples;Min_cycle;Max_cycle;Signal;HPM_P1;HPM_P2
2022/09/07 00:03:30;;;;;;;3.03;2.92;;;;;;;;;;10388667;28;20729;-77
2022/09/07 00:08:31;;;;;;;3.15;3.05;;;;;;;;;;10389931;28;20236;-76
2022/09/07 00:13:33;;;;;;;3.72;3.33;;;;;;;;;;10385144;28;20225;-76
2022/09/07 00:18:34;;;;;;;3.83;3.63;;;;;;;;;;10418181;28;20297;-77
2022/09/07 00:23:37;;;;;;;3.40;3.22;;;;;;;;;;10418897;28;20298;-77
2022/09/07 00:28:38;;;;;;;3.58;3.33;;;;;;;;;;10416568;28;20218;-77
2022/09/07 00:33:40;;;;;;;2.95;2.85;;;;;;;;;;10412973;28;20217;-76
2022/09/07 00:38:41;;;;;;;3.70;3.50;;;;;;;;;;10416205;28;20242;-77
2022/09/07 00:43:44;;;;;;;4.10;3.80;;;;;;;;;;10411959;28;20227;-77
2022/09/07 00:48:55;;;;;;;3.78;3.47;;;;;;;;;;10413706;28;20219;-76
2022/09/07 00:54:02;;;;;;;3.63;3.40;;;;;;;;;;10413065;28;20215;-76
2022/09/07 00:59:03;;;;;;;4.45;3.67;;;;;;;;;;10413720;28;20223;-77
2022/09/07 01:04:05;;;;;;;3.53;3.25;;;;;;;;;;10410341;28;20298;-76
2022/09/07 01:09:11;;;;;;;3.28;3.10;;;;;;;;;;10416555;28;20800;-76
2022/09/07 01:14:14;;;;;;;2.97;2.83;;;;;;;;;;10394672;28;20212;-76
2022/09/07 01:19:21;;;;;;;3.05;2.88;;;;;;;;;;10389143;28;20720;-77
2022/09/07 01:24:25;;;;;;;3.55;3.35;;;;;;;;;;10414302;28;20253;-76
2022/09/07 01:29:30;;;;;;;3.15;3.05;;;;;;;;;;10413994;28;20214;-77
2022/09/07 01:34:31;;;;;;;2.90;2.80;;;;;;;;;;10412433;28;20226;-77
2022/09/07 01:39:43;;;;;;;3.15;2.95;;;;;;;;;;10409012;28;20642;-76
2022/09/07 01:44:55;;;;;;;3.33;3.15;;;;;;;;;;10415824;28;20219;-76
2022/09/07 01:49:56;;;;;;;3.70;3.50;;;;;;;;;;10407240;28;20223;-76
2022/09/07 01:55:03;;;;;;;3.22;3.03;;;;;;;;;;10414452;28;20773;-76
2022/09/07 02:00:08;;;;;;;3.63;3.42;;;;;;;;;;10402235;28;20219;-76
2022/09/07 02:05:23;;;;;;;3.60;3.40;;;;;;;;;;10407949;28;20726;-76
2022/09/07 02:10:35;;;;;;;4.15;3.78;;;;;;;;;;10414655;28;20229;-77
2022/09/07 02:15:36;;;;;;;3.60;3.35;;;;;;;;;;10364099;28;20211;-76
2022/09/07 02:20:38;;;;;;;2.90;2.70;;;;;;;;;;10406492;28;20230;-76
2022/09/07 02:25:44;;;;;;;3.05;2.85;;;;;;;;;;10420654;28;20221;-77
2022/09/07 02:30:45;;;;;;;3.97;3.58;;;;;;;;;;10410437;28;20274;-76
2022/09/07 02:35:46;;;;;;;3.80;3.60;;;;;;;;;;10406898;28;20234;-76
2022/09/07 02:40:54;;;;;;;3.05;2.95;;;;;;;;;;10402465;28;20219;-77
2022/09/07 02:46:20;;;;;;;3.90;3.70;;;;;;;;;;10410887;28;20215;-77
2022/09/07 02:51:31;;;;;;;4.13;3.47;;;;;;;;;;10409446;28;20260;-77
2022/09/07 02:56:38;;;;;;;4.15;3.85;;;;;;;;;;10375034;28;20266;-76
2022/09/07 03:01:51;;;;;;;2.92;2.78;;;;;;;;;;10412442;28;21957;-77
2022/09/07 03:07:13;;;;;;;2.97;2.88;;;;;;;;;;10406489;28;20745;-76
2022/09/07 03:12:14;;;;;;;3.28;3.08;;;;;;;;;;10393406;28;20291;-76
2022/09/07 03:17:15;;;;;;;3.22;2.97;;;;;;;;;;10405226;28;20680;-76
2022/09/07 03:22:16;;;;;;;3.05;2.95;;;;;;;;;;10399606;28;20215;-77
2022/09/07 03:27:17;;;;;;;3.65;3.35;;;;;;;;;;10412387;28;20211;-75
2022/09/07 03:32:18;;;;;;;3.50;3.22;;;;;;;;;;10420223;28;20211;-76
2022/09/07 03:37:19;;;;;;;3.67;3.47;;;;;;;;;;10414956;28;20199;-76
2022/09/07 03:42:21;;;;;;;3.42;3.22;;;;;;;;;;10415772;28;20250;-77
2022/09/07 03:47:22;;;;;;;3.80;3.53;;;;;;;;;;10416531;28;20600;-77
2022/09/07 03:52:23;;;;;;;3.08;2.92;;;;;;;;;;10413667;28;20203;-76
2022/09/07 03:57:24;;;;;;;3.78;3.42;;;;;;;;;;10415570;28;20229;-77
2022/09/07 04:02:25;;;;;;;3.55;3.35;;;;;;;;;;10411261;28;20742;-77
2022/09/07 04:07:26;;;;;;;3.10;3.00;;;;;;;;;;10411841;28;20257;-77
2022/09/07 04:12:27;;;;;;;2.95;2.80;;;;;;;;;;10412893;28;20265;-77
2022/09/07 04:17:28;;;;;;;3.20;3.00;;;;;;;;;;10406252;28;20303;-76
2022/09/07 04:22:29;;;;;;;4.00;3.63;;;;;;;;;;10419606;28;20766;-76
2022/09/07 04:27:30;;;;;;;3.47;3.28;;;;;;;;;;10413729;28;20568;-76
2022/09/07 04:32:31;;;;;;;3.22;3.03;;;;;;;;;;10390735;28;20218;-77
2022/09/07 04:37:32;;;;;;;3.38;3.17;;;;;;;;;;10415177;28;20217;-76
2022/09/07 04:42:33;;;;;;;3.40;3.20;;;;;;;;;;10413162;28;20219;-76
2022/09/07 04:47:34;;;;;;;3.38;3.25;;;;;;;;;;10417163;28;20226;-77
2022/09/07 04:52:35;;;;;;;4.47;3.30;;;;;;;;;;10413851;28;20221;-76
2022/09/07 04:57:36;;;;;;;3.35;3.15;;;;;;;;;;10411820;28;20813;-76
2022/09/07 05:02:37;;;;;;;4.55;3.38;;;;;;;;;;10411593;28;20273;-76
2022/09/07 05:07:38;;;;;;;3.45;3.15;;;;;;;;;;10398531;28;20246;-76
2022/09/07 05:12:39;;;;;;;3.10;2.90;;;;;;;;;;10404703;28;20222;-77
2022/09/07 05:17:41;;;;;;;3.78;3.53;;;;;;;;;;10410867;28;20310;-77
2022/09/07 05:22:42;;;;;;;3.38;3.08;;;;;;;;;;10408301;28;20237;-75
2022/09/07 05:27:43;;;;;;;3.90;3.60;;;;;;;;;;10394302;28;20223;-77
2022/09/07 05:32:44;;;;;;;3.53;3.22;;;;;;;;;;10388628;28;20858;-76
2022/09/07 05:37:49;;;;;;;3.22;3.00;;;;;;;;;;10367879;28;20218;-76
2022/09/07 05:42:50;;;;;;;3.17;2.85;;;;;;;;;;10401832;28;20721;-77
2022/09/07 05:47:54;;;;;;;3.33;3.20;;;;;;;;;;10408180;28;20260;-76
2022/09/07 05:52:55;;;;;;;3.15;2.97;;;;;;;;;;10386407;28;20215;-76
2022/09/07 05:57:56;;;;;;;3.53;3.25;;;;;;;;;;10409167;28;20220;-77
2022/09/07 06:02:57;;;;;;;3.75;3.33;;;;;;;;;;10396769;28;20746;-76
2022/09/07 06:07:58;;;;;;;3.45;3.13;;;;;;;;;;10392920;28;20590;-76
2022/09/07 06:13:00;;;;;;;4.40;4.07;;;;;;;;;;10402965;28;20231;-77
2022/09/07 06:18:01;;;;;;;3.60;3.40;;;;;;;;;;10398454;28;20235;-75
2022/09/07 06:23:02;;;;;;;3.95;3.65;;;;;;;;;;10410366;28;20219;-76
2022/09/07 06:28:03;;;;;;;4.18;3.80;;;;;;;;;;10375090;28;20245;-76
2022/09/07 06:33:04;;;;;;;4.13;3.83;;;;;;;;;;10395195;28;20212;-76
2022/09/07 06:38:05;;;;;;;4.38;3.92;;;;;;;;;;10386140;28;20294;-77
2022/09/07 06:43:06;;;;;;;4.10;3.90;;;;;;;;;;10404331;28;20229;-76
2022/09/07 06:48:07;;;;;;;4.95;4.60;;;;;;;;;;10408436;28;20214;-76
2022/09/07 06:53:08;;;;;;;5.03;4.63;;;;;;;;;;10401242;28;20684;-76
2022/09/07 06:58:09;;;;;;;4.63;4.30;;;;;;;;;;10411859;28;20203;-76
2022/09/07 07:03:11;;;;;;;4.30;4.00;;;;;;;;;;10412842;28;20218;-76
2022/09/07 07:08:12;;;;;;;4.68;4.28;;;;;;;;;;10415991;28;20281;-76
2022/09/07 07:13:13;;;;;;;5.47;5.03;;;;;;;;;;10415107;28;20203;-77
2022/09/07 07:18:14;;;;;;;6.72;6.05;;;;;;;;;;10413469;28;20298;-76
2022/09/07 07:23:15;;;;;;;6.80;6.25;;;;;;;;;;10388963;28;20422;-76
2022/09/07 07:28:16;;;;;;;7.32;5.68;;;;;;;;;;10405021;28;20226;-76
2022/09/07 07:33:17;;;;;;;5.75;5.25;;;;;;;;;;10415846;28;20849;-77
2022/09/07 07:38:18;;;;;;;6.30;5.80;;;;;;;;;;10410861;28;20268;-77
2022/09/07 07:43:19;;;;;;;6.75;6.22;;;;;;;;;;10421547;28;20212;-78
2022/09/07 07:48:20;;;;;;;5.90;5.40;;;;;;;;;;10421505;28;20736;-78
2022/09/07 07:53:21;;;;;;;5.97;5.38;;;;;;;;;;10417043;28;20211;-77
2022/09/07 07:58:23;;;;;;;5.22;4.82;;;;;;;;;;10419621;28;20227;-78
2022/09/07 08:03:24;;;;;;;5.80;5.18;;;;;;;;;;10422724;28;20236;-77
2022/09/07 08:08:26;;;;;;;5.45;5.00;;;;;;;;;;10391460;28;20308;-77
2022/09/07 08:13:32;;;;;;;4.78;4.38;;;;;;;;;;10410107;28;20203;-77
2022/09/07 08:18:33;;;;;;;5.90;4.55;;;;;;;;;;10389475;28;20258;-77
2022/09/07 08:23:34;;;;;;;5.75;3.92;;;;;;;;;;10380902;28;20312;-77
2022/09/07 08:28:37;;;;;;;4.75;4.30;;;;;;;;;;10412186;28;20305;-77
2022/09/07 08:33:38;;;;;;;4.47;4.28;;;;;;;;;;10415683;28;20208;-79
2022/09/07 08:38:40;;;;;;;4.85;4.53;;;;;;;;;;10399300;28;20219;-78
2022/09/07 08:43:47;;;;;;;5.07;4.68;;;;;;;;;;10409235;28;20632;-78
2022/09/07 08:48:48;;;;;;;4.07;3.78;;;;;;;;;;10410773;28;20233;-76
2022/09/07 08:53:49;;;;;;;4.28;4.07;;;;;;;;;;10421564;28;20238;-78
2022/09/07 08:58:54;;;;;;;5.45;5.05;;;;;;;;;;10417095;28;20669;-77
2022/09/07 09:03:55;;;;;;;4.25;4.05;;;;;;;;;;10413254;28;20223;-76
2022/09/07 09:09:04;;;;;;;4.65;4.28;;;;;;;;;;10411003;28;20235;-78
2022/09/07 09:14:10;;;;;;;5.28;4.88;;;;;;;;;;10382325;28;20211;-79
2022/09/07 09:19:15;;;;;;;5.53;5.03;;;;;;;;;;10413235;28;20220;-77
2022/09/07 09:24:18;;;;;;;5.43;5.03;;;;;;;;;;10410243;28;20225;-77
2022/09/07 09:29:20;;;;;;;5.60;5.20;;;;;;;;;;10413850;28;20695;-79
2022/09/07 09:34:21;;;;;;;4.72;4.45;;;;;;;;;;10420510;28;20564;-77
2022/09/07 09:39:26;;;;;;;4.40;4.20;;;;;;;;;;10407924;28;20676;-77
2022/09/07 09:44:30;;;;;;;4.03;3.65;;;;;;;;;;10417274;28;20815;-77
2022/09/07 09:49:35;;;;;;;4.18;3.88;;;;;;;;;;10437184;28;20298;-77
2022/09/07 09:54:43;;;;;;;3.95;3.85;;;;;;;;;;10416065;28;20653;-76
2022/09/07 09:59:59;;;;;;;4.07;3.78;;;;;;;;;;10416917;28;20250;-78
2022/09/07 10:05:00;;;;;;;3.67;3.58;;;;;;;;;;10406344;28;20771;-77
2022/09/07 10:10:02;;;;;;;3.83;3.63;;;;;;;;;;10413177;28;20230;-77
2022/09/07 10:15:07;;;;;;;4.60;4.35;;;;;;;;;;10416607;28;20200;-78
2022/09/07 10:20:18;;;;;;;4.32;4.03;;;;;;;;;;10418761;28;20213;-77
2022/09/07 10:25:27;;;;;;;4.32;4.13;;;;;;;;;;10399227;28;20207;-78
2022/09/07 10:30:32;;;;;;;4.25;3.97;;;;;;;;;;10412094;28;20222;-78
2022/09/07 10:35:36;;;;;;;4.32;4.10;;;;;;;;;;10417804;28;20598;-77
2022/09/07 10:40:41;;;;;;;4.18;3.97;;;;;;;;;;10419576;28;20235;-77
2022/09/07 10:45:46;;;;;;;3.85;3.28;;;;;;;;;;10411577;28;20218;-77
2022/09/07 10:50:53;;;;;;;4.25;4.05;;;;;;;;;;10418344;28;20712;-77
2022/09/07 10:56:14;;;;;;;4.25;4.05;;;;;;;;;;10408354;28;20211;-77
2022/09/07 11:01:32;;;;;;;3.30;3.10;;;;;;;;;;10396758;28;21019;-77
2022/09/07 11:06:37;;;;;;;3.85;3.65;;;;;;;;;;10416592;28;20235;-78
2022/09/07 11:11:40;;;;;;;3.30;3.20;;;;;;;;;;10417170;28;20223;-76
2022/09/07 11:16:47;;;;;;;3.58;3.38;;;;;;;;;;10410476;28;20211;-77
2022/09/07 11:21:56;;;;;;;2.63;2.63;;;;;;;;;;10410220;28;20233;-77
2022/09/07 11:27:00;;;;;;;2.42;2.42;;;;;;;;;;10401930;28;20215;-78
2022/09/07 11:32:03;;;;;;;2.67;2.63;;;;;;;;;;10407868;28;20227;-77
2022/09/07 11:37:22;;;;;;;3.05;2.92;;;;;;;;;;10404841;28;20211;-79
2022/09/07 11:42:26;;;;;;;2.67;2.58;;;;;;;;;;10380719;28;20218;-77
2022/09/07 11:47:29;;;;;;;2.42;2.42;;;;;;;;;;10373954;28;20225;-77
2022/09/07 11:52:34;;;;;;;3.05;2.95;;;;;;;;;;10404007;28;20215;-77
2022/09/07 11:57:53;;;;;;;3.05;3.00;;;;;;;;;;10409942;28;20223;-77
2022/09/07 12:03:27;;;;;;;3.20;3.10;;;;;;;;;;10402583;28;20614;-78
2022/09/07 12:08:42;;;;;;;2.38;2.38;;;;;;;;;;10359788;28;20252;-77
2022/09/07 12:13:49;;;;;;;2.95;2.85;;;;;;;;;;10410999;28;20364;-78
2022/09/07 12:19:02;;;;;;;2.67;2.67;;;;;;;;;;10408227;28;20219;-77
2022/09/07 12:24:03;;;;;;;2.28;2.28;;;;;;;;;;10441196;28;20220;-78
2022/09/07 12:29:18;;;;;;;3.10;3.03;;;;;;;;;;10406242;28;20611;-76
2022/09/07 12:34:31;;;;;;;3.22;3.13;;;;;;;;;;10410460;28;20210;-77
2022/09/07 12:39:33;;;;;;;2.72;2.58;;;;;;;;;;10407310;28;20482;-77
2022/09/07 12:44:35;;;;;;;2.47;2.47;;;;;;;;;;10408549;28;20326;-78
2022/09/07 12:49:55;;;;;;;2.70;2.60;;;;;;;;;;10410412;28;20215;-77
2022/09/07 12:54:59;;;;;;;3.17;2.92;;;;;;;;;;10378721;28;20227;-77
2022/09/07 13:00:24;;;;;;;2.70;2.60;;;;;;;;;;10422993;28;20235;-75
2022/09/07 13:05:25;;;;;;;3.05;2.97;;;;;;;;;;10380736;28;20231;-78
2022/09/07 13:10:26;;;;;;;2.85;2.75;;;;;;;;;;10400364;28;20223;-77
2022/09/07 13:15:32;;;;;;;2.33;2.33;;;;;;;;;;10403558;28;20750;-78
2022/09/07 13:20:33;;;;;;;3.33;3.20;;;;;;;;;;10400755;28;20208;-77
2022/09/07 13:25:37;;;;;;;3.13;3.03;;;;;;;;;;10411677;28;20222;-77
2022/09/07 13:30:47;;;;;;;2.72;2.72;;;;;;;;;;10408447;28;20237;-79
2022/09/07 13:35:49;;;;;;;3.08;2.97;;;;;;;;;;10407339;28;20216;-78
2022/09/07 13:40:51;;;;;;;2.70;2.70;;;;;;;;;;10413610;28;20215;-77
2022/09/07 13:45:52;;;;;;;2.90;2.88;;;;;;;;;;10416149;28;20223;-78
2022/09/07 13:51:09;;;;;;;2.72;2.72;;;;;;;;;;10407683;28;20573;-77
2022/09/07 13:56:10;;;;;;;2.35;2.25;;;;;;;;;;10414926;28;20563;-78
2022/09/07 14:01:17;;;;;;;2.80;2.80;;;;;;;;;;10403411;28;20222;-78
2022/09/07 14:06:21;;;;;;;2.47;2.47;;;;;;;;;;10405483;28;20238;-77
2022/09/07 14:11:24;;;;;;;2.65;2.55;;;;;;;;;;10409759;28;20234;-77
2022/09/07 14:16:25;;;;;;;2.40;2.38;;;;;;;;;;10405283;28;20216;-77
2022/09/07 14:21:27;;;;;;;2.80;2.70;;;;;;;;;;10401929;28;20214;-77
2022/09/07 14:26:28;;;;;;;2.70;2.70;;;;;;;;;;10386577;28;20214;-76
2022/09/07 14:31:30;;;;;;;2.50;2.50;;;;;;;;;;10412105;28;20297;-79
2022/09/07 14:36:32;;;;;;;3.00;2.90;;;;;;;;;;10403556;28;20224;-79
2022/09/07 14:41:37;;;;;;;2.75;2.75;;;;;;;;;;10405215;28;20273;-79
2022/09/07 14:46:39;;;;;;;2.42;2.40;;;;;;;;;;10398893;28;20223;-78
2022/09/07 14:51:42;;;;;;;2.67;2.50;;;;;;;;;;10422983;28;20639;-77
2022/09/07 14:56:59;;;;;;;1.98;1.98;;;;;;;;;;10411832;28;20421;-78
2022/09/07 15:02:25;;;;;;;2.10;2.10;;;;;;;;;;10398738;28;20246;-78
2022/09/07 15:07:38;;;;;;;2.30;2.30;;;;;;;;;;10411342;28;20266;-78
2022/09/07 15:12:43;;;;;;;2.28;2.28;;;;;;;;;;10414248;28;20227;-78
2022/09/07 15:17:44;;;;;;;2.55;2.45;;;;;;;;;;10407046;28;20219;-79
2022/09/07 15:22:45;;;;;;;2.17;2.15;;;;;;;;;;10410827;28;20297;-77
2022/09/07 15:27:46;;;;;;;2.38;2.28;;;;;;;;;;10413477;28;20253;-78
2022/09/07 15:32:48;;;;;;;1.90;1.80;;;;;;;;;;10414118;28;20551;-78
2022/09/07 15:37:49;;;;;;;2.53;2.42;;;;;;;;;;10412074;28;20207;-78
2022/09/07 15:42:50;;;;;;;2.00;2.00;;;;;;;;;;10414924;28;20734;-78
2022/09/07 15:47:51;;;;;;;1.77;1.77;;;;;;;;;;10416297;28;20294;-77
2022/09/07 15:52:52;;;;;;;2.70;2.60;;;;;;;;;;10413469;28;20459;-77
2022/09/07 15:57:53;;;;;;;2.70;2.60;;;;;;;;;;10419763;28;20227;-77
2022/09/07 16:02:54;;;;;;;2.83;2.83;;;;;;;;;;10416936;28;20238;-76
2022/09/07 16:07:55;;;;;;;2.75;2.72;;;;;;;;;;10409390;28;20300;-78
2022/09/07 16:12:56;;;;;;;3.38;3.17;;;;;;;;;;10409146;28;20256;-77
2022/09/07 16:17:57;;;;;;;4.10;3.00;;;;;;;;;;10412157;28;20866;-78
2022/09/07 16:22:58;;;;;;;2.97;2.78;;;;;;;;;;10416240;28;20315;-77
2022/09/07 16:27:59;;;;;;;2.88;2.78;;;;;;;;;;10411509;28;20277;-78
2022/09/07 16:33:00;;;;;;;3.83;3.40;;;;;;;;;;10394240;28;20215;-80
2022/09/07 16:38:02;;;;;;;2.67;2.58;;;;;;;;;;10411927;28;20231;-80
2022/09/07 16:43:03;;;;;;;2.75;2.75;;;;;;;;;;10413821;28;20243;-80
2022/09/07 16:48:04;;;;;;;2.97;2.78;;;;;;;;;;10410207;28;20223;-78
2022/09/07 16:53:05;;;;;;;3.08;2.97;;;;;;;;;;10409106;28;20211;-80
2022/09/07 16:58:06;;;;;;;3.00;2.90;;;;;;;;;;10412645;28;20584;-78
2022/09/07 17:03:08;;;;;;;2.65;2.65;;;;;;;;;;10413535;28;20218;-80
2022/09/07 17:08:09;;;;;;;3.05;2.95;;;;;;;;;;10409161;28;20485;-80
2022/09/07 17:13:10;;;;;;;3.03;2.92;;;;;;;;;;10409538;28;20219;-81
2022/09/07 17:18:11;;;;;;;3.78;3.58;;;;;;;;;;10406592;28;20664;-80
2022/09/07 17:23:18;;;;;;;3.33;3.22;;;;;;;;;;10403177;28;20291;-80
2022/09/07 17:28:20;;;;;;;3.33;3.22;;;;;;;;;;10419719;28;20215;-80
2022/09/07 17:33:21;;;;;;;3.72;3.53;;;;;;;;;;10425897;28;20377;-80
2022/09/07 17:38:22;;;;;;;3.33;3.22;;;;;;;;;;10412722;28;20729;-80
2022/09/07 17:43:23;;;;;;;3.53;3.42;;;;;;;;;;10408193;28;20246;-80
2022/09/07 17:48:24;;;;;;;3.42;3.13;;;;;;;;;;10407091;28;20331;-80
2022/09/07 17:53:25;;;;;;;3.33;3.15;;;;;;;;;;10408496;28;20210;-80
2022/09/07 17:58:26;;;;;;;3.65;3.40;;;;;;;;;;10411274;28;20313;-80
2022/09/07 18:03:27;;;;;;;3.50;3.30;;;;;;;;;;10411353;28;20565;-80
2022/09/07 18:08:29;;;;;;;4.35;4.03;;;;;;;;;;10407327;28;20227;-81
2022/09/07 18:13:30;;;;;;;3.88;3.67;;;;;;;;;;10404480;28;20218;-81
2022/09/07 18:18:31;;;;;;;3.03;2.92;;;;;;;;;;10409365;28;20215;-81
2022/09/07 18:23:32;;;;;;;3.95;3.78;;;;;;;;;;10404731;28;20220;-79
2022/09/07 18:28:33;;;;;;;3.80;3.60;;;;;;;;;;10406676;28;20219;-80
2022/09/07 18:33:35;;;;;;;4.05;3.78;;;;;;;;;;10407500;28;20800;-80
2022/09/07 18:38:36;;;;;;;3.95;3.75;;;;;;;;;;10408381;28;20243;-80
2022/09/07 18:43:38;;;;;;;3.90;3.65;;;;;;;;;;10392395;28;20210;-79
2022/09/07 18:48:39;;;;;;;5.20;3.90;;;;;;;;;;10411772;28;20292;-80
2022/09/07 18:53:41;;;;;;;4.22;3.90;;;;;;;;;;10408767;28;20211;-79
2022/09/07 18:58:42;;;;;;;3.28;3.00;;;;;;;;;;10407416;28;20215;-79
2022/09/07 19:03:44;;;;;;;3.67;3.58;;;;;;;;;;10408831;28;20488;-78
2022/09/07 19:08:45;;;;;;;3.78;3.58;;;;;;;;;;10400458;28;24112;-78
2022/09/07 19:13:46;;;;;;;3.55;3.35;;;;;;;;;;10409226;28;20786;-78
2022/09/07 19:18:48;;;;;;;3.60;3.50;;;;;;;;;;10408087;28;20207;-78
2022/09/07 19:23:55;;;;;;;3.97;3.78;;;;;;;;;;10411242;28;20755;-78
2022/09/07 19:28:57;;;;;;;4.10;3.90;;;;;;;;;;10406254;28;20215;-78
2022/09/07 19:34:00;;;;;;;4.20;3.83;;;;;;;;;;10401665;28;20239;-78
2022/09/07 19:39:01;;;;;;;4.43;4.13;;;;;;;;;;10407895;28;20250;-78
2022/09/07 19:44:02;;;;;;;4.28;4.07;;;;;;;;;;10407345;28;20277;-77
2022/09/07 19:49:04;;;;;;;3.92;3.75;;;;;;;;;;10410145;28;20220;-78
2022/09/07 19:54:05;;;;;;;3.78;3.60;;;;;;;;;;10406776;28;20215;-78
2022/09/07 19:59:07;;;;;;;4.35;4.18;;;;;;;;;;10410996;28;20243;-78
2022/09/07 20:04:10;;;;;;;38.58;7.05;;;;;;;;;;10420941;28;20225;-77
2022/09/07 20:09:14;;;;;;;25.58;7.93;;;;;;;;;;10411259;28;20227;-77
2022/09/07 20:14:16;;;;;;;6.25;5.93;;;;;;;;;;10411905;28;20224;-77
2022/09/07 20:19:17;;;;;;;15.48;8.45;;;;;;;;;;10409569;28;20675;-78
2022/09/07 20:24:21;;;;;;;9.10;7.22;;;;;;;;;;10406851;28;20214;-78
2022/09/07 20:29:22;;;;;;;12.05;7.90;;;;;;;;;;10406334;28;20223;-78
2022/09/07 20:34:23;;;;;;;9.00;6.93;;;;;;;;;;10406222;28;20216;-78
2022/09/07 20:39:24;;;;;;;9.75;7.57;;;;;;;;;;10414212;28;20230;-78
2022/09/07 20:44:25;;;;;;;12.27;5.00;;;;;;;;;;10401799;28;20739;-78
2022/09/07 20:49:26;;;;;;;2.50;2.40;;;;;;;;;;10407348;28;20295;-78
2022/09/07 20:54:27;;;;;;;1.25;1.25;;;;;;;;;;10412728;28;20224;-78
2022/09/07 20:59:28;;;;;;;0.70;0.70;;;;;;;;;;10404740;28;20621;-78
2022/09/07 21:04:29;;;;;;;0.28;0.28;;;;;;;;;;10407106;28;20211;-78
2022/09/07 21:09:30;;;;;;;0.57;0.57;;;;;;;;;;10406832;28;20638;-78
2022/09/07 21:14:31;;;;;;;0.68;0.68;;;;;;;;;;10406263;28;20220;-78
2022/09/07 21:19:32;;;;;;;1.35;0.88;;;;;;;;;;10397927;28;20244;-78
2022/09/07 21:24:33;;;;;;;1.27;0.75;;;;;;;;;;10409628;28;20561;-78
2022/09/07 21:29:34;;;;;;;1.85;0.93;;;;;;;;;;10405135;28;20219;-78
2022/09/07 21:34:35;;;;;;;7.75;1.17;;;;;;;;;;10403567;28;20220;-78
2022/09/07 21:39:36;;;;;;;0.75;0.73;;;;;;;;;;10408247;28;20207;-78
2022/09/07 21:44:37;;;;;;;0.77;0.77;;;;;;;;;;10404269;28;20214;-78
2022/09/07 21:49:38;;;;;;;0.35;0.35;;;;;;;;;;10400194;28;20270;-78
2022/09/07 21:54:40;;;;;;;0.68;0.68;;;;;;;;;;10404406;28;20354;-78
2022/09/07 21:59:41;;;;;;;0.73;0.73;;;;;;;;;;10401739;28;20207;-78
2022/09/07 22:04:42;;;;;;;0.32;0.32;;;;;;;;;;10400777;28;20226;-78
2022/09/07 22:09:43;;;;;;;0.52;0.52;;;;;;;;;;10405011;28;20656;-78
2022/09/07 22:14:45;;;;;;;0.20;0.20;;;;;;;;;;10398341;28;20272;-78
2022/09/07 22:19:46;;;;;;;1.30;0.80;;;;;;;;;;10401038;28;20211;-77
2022/09/07 22:24:47;;;;;;;0.93;0.93;;;;;;;;;;10406103;28;20270;-77
2022/09/07 22:29:48;;;;;;;0.60;0.60;;;;;;;;;;10401749;28;20946;-77
2022/09/07 22:34:50;;;;;;;0.70;0.70;;;;;;;;;;10400389;28;20438;-77
2022/09/07 22:39:51;;;;;;;0.38;0.38;;;;;;;;;;10412710;28;20216;-78
2022/09/07 22:44:52;;;;;;;0.90;0.90;;;;;;;;;;10402258;28;20803;-77
2022/09/07 22:49:53;;;;;;;1.95;1.02;;;;;;;;;;10402299;28;20230;-78
2022/09/07 22:54:54;;;;;;;2.25;0.50;;;;;;;;;;10396358;28;20215;-77
2022/09/07 22:59:55;;;;;;;1.38;0.70;;;;;;;;;;10396890;28;20219;-77
2022/09/07 23:04:56;;;;;;;1.42;1.42;;;;;;;;;;10397611;28;20222;-77
2022/09/07 23:09:59;;;;;;;3.15;0.47;;;;;;;;;;10397553;28;20230;-78
2022/09/07 23:15:00;;;;;;;0.65;0.65;;;;;;;;;;10381662;28;20231;-77
2022/09/07 23:20:01;;;;;;;0.88;0.68;;;;;;;;;;10394264;28;20342;-78
2022/09/07 23:25:02;;;;;;;0.45;0.45;;;;;;;;;;10404715;28;20306;-78
2022/09/07 23:30:04;;;;;;;0.85;0.52;;;;;;;;;;10373443;28;20230;-77
2022/09/07 23:35:05;;;;;;;1.88;0.43;;;;;;;;;;10397846;28;20286;-77
2022/09/07 23:40:07;;;;;;;1.73;1.63;;;;;;;;;;10402115;28;20223;-78
2022/09/07 23:45:08;;;;;;;0.47;0.40;;;;;;;;;;10397202;28;20441;-77
2022/09/07 23:50:10;;;;;;;1.35;0.65;;;;;;;;;;10406331;28;20230;-77
2022/09/07 23:55:12;;;;;;;0.77;0.77;;;;;;;;;;10407461;28;20204;-77
